Aeroporto :
LOGIN :

Iscrizione | Disclaimer

   EN    FR    IT 

 










Sommario :    VFR   VFR Marginale   IFR   IFR Intensivo   IFR Molto Intensivo
Visibilità : 
Base nubi : 
>= 8 km
>= 3000ft
5 / 8 km
1000 / 3000 ft
1500m / 5 km
500 / 1000 ft
800 / 1500m
200 / 500 ft
< 800m
< 200 ft
Simboli :   Temporali  Nebbia  Neve Forte  Precipitazioni Forti  Vento > 20 kt
SIGMETs :   Varie  Temporali  Ghiacco  Turbolenza  Onda orograficha  Ceneri Vulcaniche






- Altitudine del aeroporto : 814 ft
- Codice IATA : TLM


DAON - Zenata - Tlemcen

ULTIMO METAR :
  • 190400Z 27003KT 9999 FEW030 19/16 Q1016

METARs OBSOLETI :
  • 190330Z 27003KT 9999 FEW030 20/15 Q1016
  • 190300Z 27005KT 9999 FEW030 20/15 Q1016
  • 190230Z 27004KT 9999 FEW030 20/14 Q1016
  • 190200Z 28004KT 9999 FEW030 21/14 Q1017
  • 190130Z 32003KT 9999 FEW030 21/14 Q1016
  • 190100Z 26005KT 9999 FEW030 21/14 Q1017
  • 190030Z 27007KT CAVOK 21/14 Q1017
  • 190000Z 30005KT CAVOK 21/13 Q1017
  • 182330Z 30004KT CAVOK 22/12 Q1017

TAF TAF DAON
Valido dal 19 a 00 ore il 20 a 00 ore UTC


182300Z 1900/1924 28008KT 8000 NSC
BECMG 1908/1910 35010KT
PROB40
TEMPO 1906/1912 5000 TSRA FEW026CB
BECMG 1920/1924 VRB02KT



MetMap, La meteo Aeronautica in un colpo d'occhio ! - Copyright ORBIFLY Dicembre 2007 - Disclaimer

ORBIFLY MET'MAP TEAM :

Programmazione e sviluppo : Alexandra Zaïnal
Concezione : Baudouin d'Aumeries
Supporto tecnico e logistico : Manuel Goepfert
Aiuto : Marc-Olivier Méhu
Aiuto per la traduzione : Arnaldo La Scala




FONTI E CREDITI :

   NOAA